Time;durP1;ratioP1;P1;durP2;ratioP2;P2;SDS_P1;SDS_P2;PMS_P1;PMS_P2;Temp;Humidity;BMP_temperature;BMP_pressure;BME280_temperature;BME280_humidity;BME280_pressure;Samples;Min_cycle;Max_cycle;Signal;HPM_P1;HPM_P2
2022/03/06 00:00:08;;;;;;;5.32;2.88;;;-2.80;81.40;;;;;;5103011;28;20028;-80
2022/03/06 00:02:35;;;;;;;6.10;2.92;;;-2.80;82.30;;;;;;5112955;28;20020;-80
2022/03/06 00:05:01;;;;;;;5.40;2.55;;;-2.80;81.90;;;;;;5099959;28;20114;-80
2022/03/06 00:07:27;;;;;;;5.57;3.40;;;-2.90;81.90;;;;;;5103092;28;20032;-83
2022/03/06 00:09:54;;;;;;;5.50;3.33;;;-2.90;81.90;;;;;;5118536;28;20081;-80
2022/03/06 00:12:20;;;;;;;5.93;2.65;;;-2.90;82.20;;;;;;5113707;28;20062;-81
2022/03/06 00:14:46;;;;;;;3.72;2.95;;;-2.90;82.40;;;;;;5109886;28;20039;-79
2022/03/06 00:17:11;;;;;;;5.00;3.08;;;-3.00;82.80;;;;;;5118470;28;20051;-81
2022/03/06 00:19:37;;;;;;;6.18;3.60;;;-3.00;83.10;;;;;;5115784;28;20545;-80
2022/03/06 00:22:03;;;;;;;7.90;3.58;;;-3.00;83.00;;;;;;5117662;28;20048;-82
2022/03/06 00:24:29;;;;;;;5.88;3.67;;;-3.10;83.30;;;;;;5121433;28;20049;-81
2022/03/06 00:26:55;;;;;;;6.65;3.65;;;-3.10;83.60;;;;;;5119605;28;20023;-81
2022/03/06 00:29:21;;;;;;;4.00;2.50;;;-3.10;83.70;;;;;;5113201;28;20030;-79
2022/03/06 00:31:47;;;;;;;6.57;3.03;;;-3.20;83.90;;;;;;5121159;28;20016;-81
2022/03/06 00:34:13;;;;;;;6.88;3.70;;;-3.20;83.90;;;;;;5117839;28;20062;-80
2022/03/06 00:36:39;;;;;;;4.82;3.08;;;-3.20;84.30;;;;;;5116916;28;20477;-80
2022/03/06 00:39:05;;;;;;;8.25;3.42;;;-3.20;84.60;;;;;;5116347;28;20035;-80
2022/03/06 00:41:31;;;;;;;7.55;3.35;;;-3.30;84.60;;;;;;5114536;28;20030;-82
2022/03/06 00:43:57;;;;;;;7.57;4.28;;;-3.30;85.00;;;;;;5095899;28;20099;-81
2022/03/06 00:46:23;;;;;;;8.77;4.22;;;-3.30;85.10;;;;;;5113924;28;20107;-81
2022/03/06 00:48:48;;;;;;;7.53;3.75;;;-3.40;85.20;;;;;;5097904;28;20030;-81
2022/03/06 00:51:15;;;;;;;10.27;5.63;;;-3.40;85.30;;;;;;5115995;28;20065;-81
2022/03/06 00:53:42;;;;;;;12.38;3.53;;;-3.40;85.60;;;;;;5115917;28;20035;-82
2022/03/06 00:56:08;;;;;;;8.23;4.45;;;-3.50;86.00;;;;;;5099009;28;20028;-80
2022/03/06 00:58:34;;;;;;;5.63;3.67;;;-3.50;86.20;;;;;;5115705;28;20034;-80
2022/03/06 01:01:00;;;;;;;7.88;3.38;;;-3.50;86.40;;;;;;5099809;28;20024;-80
2022/03/06 01:03:26;;;;;;;7.82;4.57;;;-3.50;86.50;;;;;;5115594;28;20028;-79
2022/03/06 01:05:52;;;;;;;6.82;3.78;;;-3.60;86.60;;;;;;5115775;28;20028;-81
2022/03/06 01:08:17;;;;;;;10.50;5.50;;;-3.60;86.70;;;;;;5115388;28;20112;-81
2022/03/06 01:10:45;;;;;;;6.63;3.45;;;-3.60;86.80;;;;;;5114907;28;20024;-80
2022/03/06 01:13:13;;;;;;;7.68;3.95;;;-3.70;87.00;;;;;;5115073;28;20134;-80
2022/03/06 01:15:39;;;;;;;10.23;6.00;;;-3.70;87.00;;;;;;5115217;28;20038;-81
2022/03/06 01:18:06;;;;;;;7.85;3.78;;;-3.70;87.10;;;;;;5115375;28;20094;-80
2022/03/06 01:20:33;;;;;;;7.20;4.75;;;-3.70;87.30;;;;;;5115371;28;20455;-80
2022/03/06 01:22:59;;;;;;;8.63;4.30;;;-3.70;87.40;;;;;;5115441;28;20468;-81
2022/03/06 01:25:24;;;;;;;11.73;4.38;;;-3.70;87.50;;;;;;5110471;28;20031;-81
2022/03/06 01:27:50;;;;;;;7.75;4.47;;;-3.80;87.60;;;;;;5115377;28;20575;-82
2022/03/06 01:30:17;;;;;;;7.65;4.38;;;-3.80;87.70;;;;;;5115249;28;20094;-83
2022/03/06 01:32:43;;;;;;;8.75;4.25;;;-3.80;87.80;;;;;;5115653;28;20034;-81
2022/03/06 01:35:09;;;;;;;8.55;5.10;;;-3.80;88.00;;;;;;5115167;28;20400;-83
2022/03/06 01:37:35;;;;;;;11.88;4.78;;;-3.80;88.00;;;;;;5097095;28;20050;-82
2022/03/06 01:40:03;;;;;;;7.97;4.85;;;-3.80;88.00;;;;;;5100809;28;20031;-81
2022/03/06 01:42:29;;;;;;;8.00;5.45;;;-3.90;88.20;;;;;;5123069;28;20520;-83
2022/03/06 01:44:55;;;;;;;7.80;4.80;;;-3.90;88.20;;;;;;5114423;28;20099;-81
2022/03/06 01:47:39;;;;;;;10.77;4.95;;;-3.90;88.20;;;;;;5115022;28;20051;-82
2022/03/06 01:50:09;;;;;;;10.60;5.05;;;-3.90;88.40;;;;;;5115349;28;20023;-81
2022/03/06 01:52:35;;;;;;;7.47;3.97;;;-4.00;88.40;;;;;;5115500;28;20044;-82
2022/03/06 01:55:01;;;;;;;8.30;4.85;;;-4.00;88.40;;;;;;5123365;28;20057;-82
2022/03/06 01:57:28;;;;;;;6.88;4.97;;;-4.00;88.60;;;;;;5115200;28;20030;-82
2022/03/06 01:59:53;;;;;;;7.07;4.47;;;-4.10;88.70;;;;;;5118472;28;20464;-81
2022/03/06 02:02:20;;;;;;;9.93;5.00;;;-4.10;88.80;;;;;;5134558;28;20089;-80
2022/03/06 02:04:45;;;;;;;7.40;5.63;;;-4.10;88.90;;;;;;5139591;28;20012;-80
2022/03/06 02:07:11;;;;;;;9.00;5.53;;;-4.20;89.00;;;;;;5136749;28;20046;-80
2022/03/06 02:09:37;;;;;;;10.60;5.47;;;-4.20;89.20;;;;;;5121841;28;20449;-81
2022/03/06 02:14:53;;;;;;;5.93;3.72;;;-4.20;89.60;;;;;;5115064;28;20575;-81
2022/03/06 02:17:20;;;;;;;6.95;3.65;;;-4.20;89.60;;;;;;5114880;28;20058;-82
2022/03/06 02:19:53;;;;;;;7.88;4.40;;;-4.30;89.80;;;;;;5130359;28;20053;-81
2022/03/06 02:22:20;;;;;;;9.20;4.95;;;-4.30;89.80;;;;;;5119858;28;20063;-81
2022/03/06 02:24:46;;;;;;;7.25;4.78;;;-4.30;89.90;;;;;;5107021;28;20054;-81
2022/03/06 02:27:12;;;;;;;7.97;4.22;;;-4.30;90.00;;;;;;5094056;28;20060;-80
2022/03/06 02:29:42;;;;;;;13.00;5.32;;;-4.30;90.00;;;;;;5093400;28;20020;-83
2022/03/06 02:32:09;;;;;;;9.15;4.90;;;-4.30;90.00;;;;;;5097513;28;20058;-80
2022/03/06 02:34:40;;;;;;;8.50;4.93;;;-4.30;90.00;;;;;;5083578;28;20032;-81
2022/03/06 02:37:06;;;;;;;8.45;6.07;;;-4.30;90.10;;;;;;5096238;28;20389;-82
2022/03/06 02:39:32;;;;;;;6.85;3.75;;;-4.40;90.10;;;;;;5097626;28;20038;-82
2022/03/06 02:41:58;;;;;;;7.10;4.53;;;-4.40;90.10;;;;;;5097680;28;20020;-81
2022/03/06 02:44:24;;;;;;;12.32;5.05;;;-4.40;90.00;;;;;;5097201;28;20024;-80
2022/03/06 02:46:51;;;;;;;14.93;6.10;;;-4.40;90.00;;;;;;5096108;28;20020;-81
2022/03/06 02:49:20;;;;;;;8.77;4.35;;;-4.40;90.00;;;;;;5096279;28;20024;-81
2022/03/06 02:51:46;;;;;;;10.85;4.10;;;-4.40;90.00;;;;;;5101530;28;20023;-80
2022/03/06 02:54:17;;;;;;;7.55;3.90;;;-4.40;90.00;;;;;;5119456;28;20091;-80
2022/03/06 02:56:44;;;;;;;9.18;4.35;;;-4.40;90.00;;;;;;5113815;28;20042;-81
2022/03/06 02:59:10;;;;;;;10.63;4.40;;;-4.40;90.00;;;;;;5113731;28;20032;-81
2022/03/06 03:01:40;;;;;;;7.50;3.80;;;-4.40;90.10;;;;;;5095393;28;20031;-79
2022/03/06 03:04:10;;;;;;;7.90;4.32;;;-4.40;90.10;;;;;;5114491;28;20529;-80
2022/03/06 03:06:37;;;;;;;9.57;4.32;;;-4.40;90.10;;;;;;5117152;28;20019;-80
2022/03/06 03:09:07;;;;;;;8.63;4.50;;;-4.40;90.10;;;;;;5115113;28;20066;-80
2022/03/06 03:11:34;;;;;;;6.90;4.18;;;-4.40;90.10;;;;;;5117702;28;20076;-80
2022/03/06 03:14:01;;;;;;;12.88;4.80;;;-4.50;90.10;;;;;;5118387;28;20048;-81
2022/03/06 03:16:27;;;;;;;10.32;4.95;;;-4.40;90.20;;;;;;5113914;28;20024;-80
2022/03/06 03:18:53;;;;;;;8.95;4.97;;;-4.50;90.20;;;;;;5112733;28;20031;-80
2022/03/06 03:21:19;;;;;;;12.93;5.38;;;-4.50;90.20;;;;;;5112734;28;20024;-80
2022/03/06 03:23:44;;;;;;;8.23;6.10;;;-4.50;90.20;;;;;;5094955;28;20019;-81
2022/03/06 03:26:10;;;;;;;8.13;4.70;;;-4.50;90.20;;;;;;5112956;28;20115;-81
2022/03/06 03:28:36;;;;;;;7.50;4.50;;;-4.50;90.10;;;;;;5113200;28;20442;-80
2022/03/06 03:31:02;;;;;;;9.18;4.47;;;-4.50;90.20;;;;;;5112943;28;20019;-81
2022/03/06 03:33:28;;;;;;;9.02;5.32;;;-4.50;90.20;;;;;;5115609;28;20024;-80
2022/03/06 03:35:54;;;;;;;8.05;4.57;;;-4.50;90.20;;;;;;5116995;28;20027;-80
2022/03/06 03:38:19;;;;;;;8.57;5.15;;;-4.50;90.20;;;;;;5117014;28;20425;-81
2022/03/06 03:40:45;;;;;;;7.78;4.93;;;-4.50;90.30;;;;;;5116716;28;20024;-81
2022/03/06 03:43:11;;;;;;;10.98;4.78;;;-4.50;90.30;;;;;;5117009;28;20016;-80
2022/03/06 03:45:37;;;;;;;8.40;4.38;;;-4.50;90.20;;;;;;5102548;28;20069;-81
2022/03/06 03:48:03;;;;;;;9.15;4.65;;;-4.50;90.20;;;;;;5117083;28;20397;-80
2022/03/06 03:50:29;;;;;;;8.80;4.40;;;-4.50;90.20;;;;;;5116681;28;20049;-81
2022/03/06 03:52:55;;;;;;;8.13;4.18;;;-4.50;90.30;;;;;;5116728;28;20024;-81
2022/03/06 03:55:21;;;;;;;11.77;4.82;;;-4.50;90.20;;;;;;5098397;28;20039;-80
2022/03/06 03:57:47;;;;;;;8.80;5.25;;;-4.60;90.20;;;;;;5116828;28;20020;-81
2022/03/06 04:00:13;;;;;;;7.03;5.60;;;-4.60;90.20;;;;;;5117522;28;20028;-81
2022/03/06 04:02:38;;;;;;;8.75;5.07;;;-4.60;90.20;;;;;;5119656;28;20019;-80
2022/03/06 04:05:05;;;;;;;8.68;4.53;;;-4.60;90.30;;;;;;5108857;28;20081;-82
2022/03/06 04:07:31;;;;;;;6.43;3.70;;;-4.60;90.30;;;;;;5116206;28;20031;-80
2022/03/06 04:09:56;;;;;;;8.32;4.05;;;-4.60;90.30;;;;;;5116866;28;20024;-81
2022/03/06 04:12:22;;;;;;;17.27;8.30;;;-4.60;90.30;;;;;;5119276;28;20040;-82
2022/03/06 04:14:48;;;;;;;8.38;4.38;;;-4.60;90.20;;;;;;5125285;28;20023;-79
2022/03/06 04:17:14;;;;;;;7.97;4.60;;;-4.60;90.20;;;;;;5100155;28;20397;-81
2022/03/06 04:19:40;;;;;;;7.72;5.05;;;-4.60;90.20;;;;;;5118247;28;20101;-78
2022/03/06 04:22:06;;;;;;;9.80;4.85;;;-4.60;90.20;;;;;;5119448;28;20044;-80
2022/03/06 04:24:32;;;;;;;8.02;4.05;;;-4.60;90.20;;;;;;5121854;28;20028;-79
2022/03/06 04:26:58;;;;;;;8.02;4.97;;;-4.60;90.20;;;;;;5121021;28;20095;-79
2022/03/06 04:29:23;;;;;;;7.45;4.88;;;-4.60;90.50;;;;;;5116733;28;20047;-81
2022/03/06 04:31:49;;;;;;;7.93;4.00;;;-4.60;90.20;;;;;;5116402;28;20019;-81
2022/03/06 04:34:16;;;;;;;8.45;4.63;;;-4.60;90.20;;;;;;5116519;28;20118;-81
2022/03/06 04:36:42;;;;;;;5.82;3.90;;;-4.50;90.10;;;;;;5106685;28;20091;-79
2022/03/06 04:39:08;;;;;;;10.77;4.47;;;-4.50;90.00;;;;;;5123967;28;20055;-79
2022/03/06 04:41:34;;;;;;;10.05;4.50;;;-4.60;89.90;;;;;;5121818;28;20043;-78
2022/03/06 04:44:00;;;;;;;7.78;4.72;;;-4.60;90.00;;;;;;5123903;28;20024;-81
2022/03/06 04:46:26;;;;;;;17.90;5.68;;;-4.50;90.00;;;;;;5101744;28;20034;-80
2022/03/06 04:48:52;;;;;;;10.50;5.38;;;-4.50;90.00;;;;;;5117339;28;20020;-80
2022/03/06 04:51:18;;;;;;;8.88;5.03;;;-4.50;90.00;;;;;;5115490;28;20426;-78
2022/03/06 04:53:44;;;;;;;10.32;4.78;;;-4.50;89.80;;;;;;5116887;28;20042;-80
2022/03/06 04:56:09;;;;;;;12.23;4.97;;;-4.40;89.70;;;;;;5116282;28;20125;-81
2022/03/06 04:58:35;;;;;;;10.05;4.45;;;-4.40;89.60;;;;;;5097852;28;20038;-80
2022/03/06 05:01:02;;;;;;;7.85;4.00;;;-4.40;89.40;;;;;;5118652;28;20084;-79
2022/03/06 05:03:29;;;;;;;8.80;4.30;;;-4.30;89.40;;;;;;5099712;28;20020;-80
2022/03/06 05:05:55;;;;;;;9.55;6.82;;;-4.40;89.10;;;;;;5115656;28;20026;-80
2022/03/06 05:08:21;;;;;;;11.05;4.50;;;-4.30;89.10;;;;;;5115963;28;20028;-80
2022/03/06 05:10:47;;;;;;;6.45;3.83;;;-4.30;89.10;;;;;;5117239;28;20095;-81
2022/03/06 05:13:13;;;;;;;7.47;4.28;;;-4.30;89.00;;;;;;5116961;28;20063;-81
2022/03/06 05:15:39;;;;;;;7.65;4.88;;;-4.30;88.90;;;;;;5104897;28;20035;-79
2022/03/06 05:18:05;;;;;;;10.23;5.55;;;-4.20;88.70;;;;;;5115090;28;20039;-81
2022/03/06 05:20:31;;;;;;;12.10;5.20;;;-4.20;88.60;;;;;;5097251;28;20039;-80
2022/03/06 05:22:57;;;;;;;9.23;4.50;;;-4.20;89.10;;;;;;5115443;28;20043;-81
2022/03/06 05:25:22;;;;;;;10.05;5.05;;;-4.10;88.50;;;;;;5096763;28;20114;-79
2022/03/06 05:27:48;;;;;;;10.23;4.32;;;-4.10;88.30;;;;;;5114936;28;20020;-80
2022/03/06 05:30:14;;;;;;;7.60;4.60;;;-4.10;88.10;;;;;;5114917;28;20369;-81
2022/03/06 05:32:41;;;;;;;8.75;4.18;;;-4.10;88.00;;;;;;5115002;28;20076;-81
2022/03/06 05:35:08;;;;;;;9.90;5.43;;;-4.10;87.70;;;;;;5114857;28;20031;-81
2022/03/06 05:37:34;;;;;;;9.93;4.77;;;-4.10;87.40;;;;;;5114603;28;20024;-80
2022/03/06 05:39:59;;;;;;;11.85;6.45;;;-4.00;87.30;;;;;;5114747;28;20019;-81
2022/03/06 05:42:25;;;;;;;10.52;4.22;;;-4.00;87.10;;;;;;5115018;28;20028;-81
2022/03/06 05:44:51;;;;;;;10.77;5.57;;;-4.00;86.90;;;;;;5096532;28;20475;-81
2022/03/06 05:47:17;;;;;;;9.30;4.85;;;-4.00;86.80;;;;;;5096058;28;20028;-81
2022/03/06 05:49:43;;;;;;;9.05;4.03;;;-4.00;86.70;;;;;;5114712;28;20028;-81
2022/03/06 05:52:08;;;;;;;6.57;4.72;;;-3.90;86.60;;;;;;5114448;28;20025;-80
2022/03/06 05:54:34;;;;;;;6.60;4.07;;;-3.90;86.50;;;;;;5114824;28;20032;-81
2022/03/06 05:57:00;;;;;;;6.72;4.03;;;-3.70;86.50;;;;;;5116529;28;20031;-83
2022/03/06 05:59:26;;;;;;;8.13;4.80;;;-3.50;86.00;;;;;;5118736;28;20511;-82
2022/03/06 06:01:51;;;;;;;11.10;4.70;;;-3.60;85.50;;;;;;5122680;28;20043;-82
2022/03/06 06:04:18;;;;;;;9.88;4.78;;;-3.50;85.20;;;;;;5115898;28;20453;-80
2022/03/06 06:06:44;;;;;;;10.93;5.38;;;-3.50;85.00;;;;;;5115475;28;20012;-81
2022/03/06 06:09:10;;;;;;;8.40;4.45;;;-3.50;84.90;;;;;;5116045;28;20024;-84
2022/03/06 06:11:36;;;;;;;10.10;4.90;;;-3.50;84.80;;;;;;5114270;28;20043;-81
2022/03/06 06:14:02;;;;;;;8.45;4.85;;;-3.50;84.50;;;;;;5118443;28;20048;-79
2022/03/06 06:16:28;;;;;;;7.23;4.23;;;-3.40;84.10;;;;;;5117693;28;20102;-80
2022/03/06 06:18:54;;;;;;;10.50;5.28;;;-3.40;83.90;;;;;;5115416;28;20094;-80
2022/03/06 06:21:20;;;;;;;11.52;5.47;;;-3.30;83.50;;;;;;5117583;28;20024;-80
2022/03/06 06:23:46;;;;;;;9.60;5.20;;;-3.30;83.40;;;;;;5129863;28;20149;-80
2022/03/06 06:26:12;;;;;;;10.93;4.60;;;-3.30;83.20;;;;;;5129140;28;20023;-81
2022/03/06 06:28:38;;;;;;;12.40;5.55;;;-3.20;83.20;;;;;;5116544;28;20020;-81
2022/03/06 06:31:05;;;;;;;14.70;6.03;;;-3.20;83.00;;;;;;5096544;28;20059;-81
2022/03/06 06:33:31;;;;;;;11.70;4.45;;;-3.10;83.40;;;;;;5114486;28;20019;-81
2022/03/06 06:35:58;;;;;;;11.60;5.30;;;-3.10;82.50;;;;;;5114052;28;20084;-82
2022/03/06 06:38:24;;;;;;;9.27;5.55;;;-3.10;81.90;;;;;;5095734;28;20019;-83
2022/03/06 06:40:51;;;;;;;7.27;4.77;;;-3.00;81.70;;;;;;5113715;28;20051;-80
2022/03/06 06:43:18;;;;;;;10.88;5.15;;;-3.00;81.60;;;;;;5113445;28;20617;-81
2022/03/06 06:45:44;;;;;;;6.13;4.33;;;-3.00;82.20;;;;;;5086463;28;20035;-83
2022/03/06 06:48:10;;;;;;;11.40;4.38;;;-2.90;81.50;;;;;;5103975;28;20265;-82
2022/03/06 06:50:36;;;;;;;8.43;4.50;;;-2.90;81.30;;;;;;5098014;28;20038;-79
2022/03/06 06:53:02;;;;;;;11.13;5.13;;;-2.90;81.10;;;;;;5114054;28;20032;-80
2022/03/06 06:55:28;;;;;;;12.10;4.28;;;-2.80;81.00;;;;;;5115304;28;20038;-80
2022/03/06 06:57:54;;;;;;;8.15;4.45;;;-2.70;80.60;;;;;;5114483;28;20102;-81
2022/03/06 07:00:19;;;;;;;6.05;4.18;;;-2.70;80.40;;;;;;5115763;28;20023;-82
2022/03/06 07:02:46;;;;;;;7.85;4.03;;;-2.60;80.20;;;;;;5114405;28;20084;-81
2022/03/06 07:05:15;;;;;;;10.32;4.40;;;-2.60;79.50;;;;;;5114813;28;20020;-82
2022/03/06 07:07:41;;;;;;;7.30;4.10;;;-2.50;79.10;;;;;;5113823;28;20026;-81
2022/03/06 07:10:07;;;;;;;5.88;2.80;;;-2.40;78.80;;;;;;5095360;28;20023;-83
2022/03/06 07:12:48;;;;;;;6.80;3.90;;;-2.40;78.30;;;;;;5113863;28;20067;-82
2022/03/06 07:15:15;;;;;;;9.90;2.80;;;-2.30;78.20;;;;;;5114262;28;20062;-80
2022/03/06 07:17:41;;;;;;;5.97;2.97;;;-2.20;77.20;;;;;;5115889;28;20310;-81
2022/03/06 07:20:08;;;;;;;8.73;5.28;;;-2.10;76.90;;;;;;5115122;28;20047;-82
2022/03/06 07:22:35;;;;;;;11.10;4.63;;;-2.00;76.90;;;;;;5114812;28;20072;-79
2022/03/06 07:25:01;;;;;;;12.23;3.97;;;-1.90;75.70;;;;;;5113136;28;20028;-79
2022/03/06 07:27:26;;;;;;;8.70;4.15;;;-1.90;75.20;;;;;;5113093;28;20024;-81
2022/03/06 07:29:52;;;;;;;5.97;3.13;;;-1.80;74.80;;;;;;5113080;28;20035;-82
2022/03/06 07:32:18;;;;;;;9.70;4.35;;;-1.70;74.60;;;;;;5112879;28;20407;-81
2022/03/06 07:34:44;;;;;;;4.30;1.92;;;-1.70;73.50;;;;;;5094916;28;20027;-80
2022/03/06 07:37:10;;;;;;;7.82;3.75;;;-1.80;73.40;;;;;;5125887;28;20027;-81
2022/03/06 07:39:35;;;;;;;4.95;2.60;;;-1.80;73.40;;;;;;5105341;28;20129;-80
2022/03/06 07:42:01;;;;;;;9.95;3.30;;;-1.80;73.30;;;;;;5092302;28;20035;-82
2022/03/06 07:44:27;;;;;;;4.72;2.88;;;-0.60;74.10;;;;;;5094617;28;20023;-81
2022/03/06 07:46:53;;;;;;;4.95;2.42;;;0.90;70.10;;;;;;5112993;28;20038;-80
2022/03/06 07:49:19;;;;;;;6.45;3.15;;;2.00;66.70;;;;;;5113012;28;20042;-81
2022/03/06 07:51:44;;;;;;;9.43;5.18;;;2.80;63.50;;;;;;5113622;28;20019;-82
2022/03/06 07:54:14;;;;;;;9.10;3.50;;;3.30;60.70;;;;;;5112510;28;20038;-85
2022/03/06 07:56:41;;;;;;;7.68;3.08;;;3.80;59.60;;;;;;5112620;28;20398;-81
2022/03/06 07:59:07;;;;;;;4.82;3.05;;;4.20;57.20;;;;;;5093957;28;20031;-80
2022/03/06 08:01:33;;;;;;;6.95;3.58;;;4.70;56.70;;;;;;5112323;28;20484;-82
2022/03/06 08:03:58;;;;;;;9.02;4.18;;;5.00;55.20;;;;;;5093985;28;20028;-83
2022/03/06 08:06:24;;;;;;;9.15;3.65;;;5.30;53.50;;;;;;5094050;28;20020;-81
2022/03/06 08:08:50;;;;;;;6.63;3.78;;;5.40;53.50;;;;;;5112234;28;20116;-82
2022/03/06 08:11:16;;;;;;;8.52;3.75;;;6.00;52.40;;;;;;5112364;28;20027;-81
2022/03/06 08:13:42;;;;;;;5.57;3.20;;;6.30;51.10;;;;;;5111546;28;20056;-79
2022/03/06 08:16:08;;;;;;;10.57;4.30;;;6.90;50.10;;;;;;5112069;28;20027;-81
2022/03/06 08:18:34;;;;;;;8.95;4.55;;;6.90;48.10;;;;;;5090785;28;20024;-83
2022/03/06 08:21:00;;;;;;;8.93;3.10;;;6.60;48.60;;;;;;5077374;28;20031;-82
2022/03/06 08:23:26;;;;;;;7.40;3.45;;;6.90;48.80;;;;;;5096966;28;20032;-83
2022/03/06 08:25:52;;;;;;;7.57;3.60;;;7.50;47.80;;;;;;5095250;28;20082;-81
2022/03/06 08:28:18;;;;;;;10.00;3.92;;;8.00;46.40;;;;;;5099187;28;20082;-80
2022/03/06 08:30:44;;;;;;;8.80;4.47;;;8.40;45.50;;;;;;5117177;28;20023;-81
2022/03/06 08:33:10;;;;;;;10.30;4.10;;;9.00;43.70;;;;;;5131459;28;20050;-79
2022/03/06 08:35:35;;;;;;;12.45;4.35;;;9.50;43.70;;;;;;5114467;28;20031;-85
2022/03/06 08:38:01;;;;;;;11.82;3.95;;;10.00;42.10;;;;;;5113349;28;20030;-80
2022/03/06 08:40:27;;;;;;;6.90;3.60;;;9.90;41.70;;;;;;5113684;28;20496;-80
2022/03/06 08:42:53;;;;;;;7.95;3.80;;;10.60;41.50;;;;;;5095215;28;20024;-78
2022/03/06 08:45:19;;;;;;;7.43;3.00;;;11.30;39.90;;;;;;5116165;28;20076;-77
2022/03/06 08:47:45;;;;;;;6.25;3.42;;;11.00;37.60;;;;;;5108226;28;20024;-78
2022/03/06 08:50:11;;;;;;;6.28;2.63;;;10.60;37.30;;;;;;5104057;28;20127;-78
2022/03/06 08:52:37;;;;;;;3.70;2.20;;;9.90;37.40;;;;;;5099669;28;20020;-79
2022/03/06 08:55:04;;;;;;;5.53;2.88;;;9.20;38.90;;;;;;5118763;28;20038;-79
2022/03/06 08:57:30;;;;;;;8.20;2.72;;;9.20;39.40;;;;;;5115914;28;20054;-81
2022/03/06 08:59:55;;;;;;;5.65;2.72;;;9.60;38.80;;;;;;5115112;28;20868;-79
2022/03/06 09:02:21;;;;;;;7.35;3.03;;;9.60;38.70;;;;;;5115145;28;20019;-80
2022/03/06 09:04:47;;;;;;;8.18;2.90;;;9.90;38.50;;;;;;5113305;28;20538;-79
2022/03/06 09:07:14;;;;;;;5.50;3.45;;;10.90;38.20;;;;;;5099673;28;20020;-79
2022/03/06 09:09:39;;;;;;;7.07;2.72;;;11.60;37.40;;;;;;5096392;28;20114;-83
2022/03/06 09:12:06;;;;;;;8.35;2.75;;;12.20;35.90;;;;;;5103111;28;20031;-82
2022/03/06 09:14:32;;;;;;;7.18;2.70;;;11.90;35.20;;;;;;5118024;28;20042;-84
2022/03/06 09:16:59;;;;;;;8.07;3.60;;;11.80;35.50;;;;;;5108902;28;20023;-83
2022/03/06 09:19:24;;;;;;;6.80;2.90;;;12.30;35.70;;;;;;5132620;28;20092;-85
2022/03/06 09:21:50;;;;;;;5.30;3.00;;;12.90;34.10;;;;;;5117699;28;20055;-85
2022/03/06 09:24:16;;;;;;;7.88;2.40;;;12.80;33.20;;;;;;5110102;28;20035;-86
2022/03/06 09:26:43;;;;;;;6.38;2.17;;;12.20;33.10;;;;;;5125647;28;20035;-83
2022/03/06 09:29:09;;;;;;;6.00;2.22;;;11.40;33.50;;;;;;5121198;28;20024;-85
2022/03/06 09:31:35;;;;;;;6.32;2.13;;;10.90;34.30;;;;;;5117052;28;20076;-83
2022/03/06 09:34:01;;;;;;;4.78;2.28;;;10.70;33.80;;;;;;5100288;28;20455;-85
2022/03/06 09:36:27;;;;;;;8.25;2.13;;;10.00;34.80;;;;;;5120629;28;20023;-84
2022/03/06 09:38:52;;;;;;;5.45;2.75;;;9.60;35.90;;;;;;5128914;28;20115;-84
2022/03/06 09:41:24;;;;;;;5.00;2.38;;;9.80;36.00;;;;;;5134225;28;20023;-85
2022/03/06 09:43:53;;;;;;;5.18;2.47;;;10.10;35.50;;;;;;5133543;28;20072;-83
2022/03/06 09:46:21;;;;;;;5.65;1.48;;;9.80;35.50;;;;;;5124273;28;20028;-84
2022/03/06 09:48:48;;;;;;;7.55;2.95;;;9.30;35.80;;;;;;5117508;28;20415;-83
2022/03/06 09:51:14;;;;;;;9.90;1.90;;;9.00;36.70;;;;;;5117214;28;20472;-83
2022/03/06 09:53:40;;;;;;;6.93;2.33;;;9.20;36.60;;;;;;5101345;28;20388;-82
2022/03/06 09:56:07;;;;;;;5.05;2.33;;;9.10;36.60;;;;;;5082960;28;20092;-84
2022/03/06 09:58:33;;;;;;;9.50;2.65;;;9.20;36.80;;;;;;5114616;28;20028;-86
2022/03/06 10:00:58;;;;;;;11.82;3.13;;;9.80;36.90;;;;;;5079288;28;20051;-84
2022/03/06 10:03:25;;;;;;;9.25;2.90;;;10.70;35.70;;;;;;5076995;28;20024;-85
2022/03/06 10:05:52;;;;;;;6.57;1.98;;;10.90;34.70;;;;;;5094248;28;20491;-83
2022/03/06 10:08:26;;;;;;;5.60;2.60;;;11.00;34.60;;;;;;5076464;28;20446;-81
2022/03/06 10:10:57;;;;;;;5.63;2.35;;;11.90;34.00;;;;;;5080936;28;20070;-82
2022/03/06 10:13:29;;;;;;;6.25;2.03;;;12.30;32.80;;;;;;5095461;28;20131;-84
2022/03/06 10:16:18;;;;;;;4.40;1.60;;;12.00;32.40;;;;;;5081132;28;20478;-83
2022/03/06 10:18:46;;;;;;;7.45;2.10;;;11.70;32.50;;;;;;5097690;28;20030;-85
2022/03/06 10:21:27;;;;;;;4.85;1.77;;;11.30;32.80;;;;;;5116504;28;20126;-84
2022/03/06 10:24:01;;;;;;;3.92;2.17;;;11.60;32.70;;;;;;5121122;28;20024;-82
2022/03/06 10:26:30;;;;;;;4.80;2.17;;;12.40;32.00;;;;;;5121956;28;20106;-84
2022/03/06 10:29:02;;;;;;;8.35;3.10;;;12.40;31.40;;;;;;5118493;28;20020;-85
2022/03/06 10:31:31;;;;;;;6.70;2.20;;;12.10;31.40;;;;;;5117192;28;20015;-84
2022/03/06 10:34:09;;;;;;;6.80;1.85;;;10.70;31.90;;;;;;5115191;28;20340;-83
2022/03/06 10:36:38;;;;;;;7.78;1.80;;;9.00;33.60;;;;;;5097464;28;20360;-82
2022/03/06 10:39:11;;;;;;;6.85;2.25;;;7.50;35.60;;;;;;5100024;28;20023;-84
2022/03/06 10:41:41;;;;;;;3.15;2.00;;;6.60;37.40;;;;;;5131731;28;20019;-82
2022/03/06 10:44:09;;;;;;;3.28;1.67;;;5.90;38.50;;;;;;5134136;28;20035;-83
2022/03/06 10:46:36;;;;;;;5.78;2.17;;;5.20;39.60;;;;;;5103145;28;20020;-82
2022/03/06 10:49:08;;;;;;;;;;;4.60;41.10;;;;;;5080051;28;20024;-83
2022/03/06 10:51:43;;;;;;;7.53;3.28;;;4.30;41.00;;;;;;5096330;28;19903;-81
2022/03/06 10:54:09;;;;;;;8.70;4.25;;;4.40;42.90;;;;;;5096168;28;20098;-83
2022/03/06 10:56:36;;;;;;;11.13;3.20;;;4.40;43.30;;;;;;5096428;28;20027;-82
2022/03/06 10:59:05;;;;;;;12.52;3.38;;;4.30;43.40;;;;;;5113563;28;20035;-80
2022/03/06 11:01:31;;;;;;;5.57;2.67;;;4.10;43.50;;;;;;5113400;28;20027;-82
2022/03/06 11:03:59;;;;;;;6.25;3.03;;;4.00;44.20;;;;;;5113854;28;20015;-83
2022/03/06 11:06:27;;;;;;;6.03;2.40;;;3.90;44.30;;;;;;5112422;28;20019;-82
2022/03/06 11:08:54;;;;;;;6.50;2.78;;;4.00;44.90;;;;;;5113686;28;20020;-81
2022/03/06 11:11:21;;;;;;;6.63;2.35;;;3.90;45.10;;;;;;5113207;28;20088;-82
2022/03/06 11:13:47;;;;;;;6.45;2.53;;;3.90;45.20;;;;;;5113518;28;20441;-81
2022/03/06 11:16:14;;;;;;;6.15;3.33;;;3.70;45.40;;;;;;5112978;28;20031;-82
2022/03/06 11:18:40;;;;;;;8.30;3.43;;;3.60;45.90;;;;;;5113076;28;20023;-83
2022/03/06 11:21:07;;;;;;;16.35;4.57;;;3.50;46.50;;;;;;5116488;28;20658;-84
2022/03/06 11:23:46;;;;;;;13.37;2.80;;;3.50;46.80;;;;;;5097024;28;20028;-82
2022/03/06 11:26:15;;;;;;;7.03;3.05;;;3.30;46.90;;;;;;5092669;28;20032;-83
2022/03/06 11:28:58;;;;;;;10.35;2.40;;;3.20;47.40;;;;;;5093020;28;20016;-83
2022/03/06 11:31:28;;;;;;;6.22;2.78;;;3.00;47.50;;;;;;5093599;28;20024;-85
2022/03/06 11:33:56;;;;;;;4.95;2.03;;;2.80;47.70;;;;;;5075619;28;20020;-85
2022/03/06 11:36:25;;;;;;;5.35;2.70;;;2.50;47.80;;;;;;5093278;28;20073;-83
2022/03/06 11:38:51;;;;;;;9.50;2.65;;;2.20;48.30;;;;;;5093472;28;20527;-82
2022/03/06 11:41:18;;;;;;;6.85;2.17;;;2.20;48.80;;;;;;5092705;28;20036;-81
2022/03/06 11:43:49;;;;;;;12.10;2.92;;;2.20;48.80;;;;;;5075080;28;20028;-82
2022/03/06 11:46:25;;;;;;;10.98;3.42;;;2.30;48.70;;;;;;5110217;28;20169;-82
2022/03/06 11:48:50;;;;;;;4.65;2.63;;;2.40;48.80;;;;;;5113461;28;20024;-82
2022/03/06 11:51:25;;;;;;;5.35;1.80;;;2.60;48.50;;;;;;5095246;28;20027;-83
2022/03/06 11:53:57;;;;;;;6.55;2.50;;;2.60;48.50;;;;;;5114976;28;20876;-83
2022/03/06 11:56:34;;;;;;;13.57;2.53;;;2.70;48.80;;;;;;5099251;28;20020;-84
2022/03/06 11:59:22;;;;;;;5.50;2.50;;;2.90;49.00;;;;;;5101617;28;20039;-82
2022/03/06 12:01:49;;;;;;;11.57;2.97;;;3.10;48.70;;;;;;5097827;28;20027;-82
2022/03/06 12:04:17;;;;;;;9.63;3.88;;;3.20;48.50;;;;;;5081091;28;20036;-82
2022/03/06 12:06:46;;;;;;;10.43;3.17;;;3.20;48.60;;;;;;5096139;28;20481;-82
2022/03/06 12:09:32;;;;;;;13.55;4.60;;;3.30;48.40;;;;;;5113755;28;20062;-82
2022/03/06 12:12:04;;;;;;;14.15;3.13;;;3.40;48.50;;;;;;5097354;28;20488;-82
2022/03/06 12:14:39;;;;;;;4.38;2.10;;;3.30;48.30;;;;;;5116544;28;20031;-82
2022/03/06 12:17:07;;;;;;;6.32;3.10;;;3.10;47.90;;;;;;5116373;28;20051;-82
2022/03/06 12:19:46;;;;;;;8.00;3.33;;;2.90;48.50;;;;;;5116616;28;20484;-81
2022/03/06 12:22:14;;;;;;;8.30;2.08;;;3.00;49.00;;;;;;5115207;28;20028;-82
2022/03/06 12:24:41;;;;;;;7.57;3.08;;;3.00;48.50;;;;;;5116318;28;20189;-83
2022/03/06 12:27:15;;;;;;;6.72;2.33;;;2.90;48.30;;;;;;5116425;28;20406;-82
2022/03/06 12:29:51;;;;;;;4.70;2.28;;;2.80;48.50;;;;;;5117193;28;20158;-84
2022/03/06 12:32:28;;;;;;;10.30;2.50;;;2.70;48.80;;;;;;5116280;28;20035;-83
2022/03/06 12:34:59;;;;;;;7.47;3.50;;;2.80;48.80;;;;;;5116211;28;20023;-81
2022/03/06 12:37:37;;;;;;;7.20;2.92;;;2.80;48.80;;;;;;5115975;28;20095;-84
2022/03/06 12:40:06;;;;;;;6.10;2.72;;;2.90;48.90;;;;;;5094391;28;20036;-82
2022/03/06 12:42:34;;;;;;;7.78;2.92;;;2.90;48.50;;;;;;5097780;28;20026;-82
2022/03/06 12:45:04;;;;;;;5.10;2.15;;;2.80;48.60;;;;;;5086631;28;20442;-83
2022/03/06 12:47:30;;;;;;;4.47;2.72;;;2.70;48.50;;;;;;5098721;28;20419;-80
2022/03/06 12:49:56;;;;;;;8.75;2.47;;;2.60;48.60;;;;;;5120418;28;20035;-82